CheckWX is a tool to help pilots better visualize weather data.  It is not intended as a substitute for an official pre-flight weather briefing.

18:13:39 UTC

KOMA TAF
Eppley Airfield Airport
Omaha, Nebraska, USA
KOMA 121752Z 1218/1318 17018G26KT P6SM FEW250 FM130200 17015KT P6SM SCT250 WS020/22040KT FM130900 18010KT P6SM BKN250 FM131700 22010KT P6SM VCSH SCT025 BKN050 OVC100

Nov-12@
18:00 UTC

Nov-12 @ 18:00 UTC

Nov-13@
02:00 UTC

Nov-13 @ 02:00 UTC

KOMA 121752Z 1218/1318 17018G26KT P6SM FEW250
Wind
  • 170° at 18 KTS
  • {Gusting to 26 KTS
Cloud Levels
  • Few at 25,000' AGL

Nov-13@
02:00 UTC

Nov-13 @ 02:00 UTC

Nov-13@
09:00 UTC

Nov-13 @ 09:00 UTC

FM130200 17015KT P6SM SCT250 WS020/22040KT

From

From Standard forecast or significant change

Wind
  • 170° at 15 KTS
Cloud Levels
  • Scattered at 25,000' AGL

Nov-13@
09:00 UTC

Nov-13 @ 09:00 UTC

Nov-13@
17:00 UTC

Nov-13 @ 17:00 UTC

FM130900 18010KT P6SM BKN250

From

From Standard forecast or significant change

Wind
  • 180° at 10 KTS
Cloud Levels
  • Broken at 25,000' AGL

Nov-13@
17:00 UTC

Nov-13 @ 17:00 UTC

Nov-13@
18:00 UTC

Nov-13 @ 18:00 UTC

FM131700 22010KT P6SM VCSH SCT025 BKN050 OVC100

From

From Standard forecast or significant change

Wind
  • 220° at 10 KTS
Cloud Levels
  • Scattered at 2,500' AGL
  • Broken at 5,000' AGL
  • Overcast at 10,000' AGL